Time;durP1;ratioP1;P1;durP2;ratioP2;P2;SDS_P1;SDS_P2;PMS_P1;PMS_P2;Temp;Humidity;BMP_temperature;BMP_pressure;BME280_temperature;BME280_humidity;BME280_pressure;Samples;Min_cycle;Max_cycle;Signal;HPM_P1;HPM_P2
2023/08/12 00:00:23;;;;;;;22.88;18.77;;;24.30;99.90;;;;;;5031338;28;20033;-77
2023/08/12 00:02:48;;;;;;;27.33;19.45;;;24.40;99.90;;;;;;5031852;28;20026;-77
2023/08/12 00:05:14;;;;;;;23.88;20.48;;;24.30;99.90;;;;;;5031667;28;20482;-78
2023/08/12 00:07:43;;;;;;;24.58;19.30;;;24.30;99.90;;;;;;5031126;28;20029;-78
2023/08/12 00:10:11;;;;;;;28.60;18.08;;;24.30;99.90;;;;;;5017877;28;20479;-77
2023/08/12 00:12:38;;;;;;;26.83;19.17;;;24.30;99.90;;;;;;5015224;28;20040;-78
2023/08/12 00:15:06;;;;;;;23.00;16.95;;;24.40;99.90;;;;;;5014102;28;20025;-77
2023/08/12 00:17:32;;;;;;;26.60;18.52;;;24.20;99.90;;;;;;5015062;28;20026;-77
2023/08/12 00:19:59;;;;;;;25.00;18.48;;;24.10;99.90;;;;;;5014831;28;20190;-77
2023/08/12 00:22:25;;;;;;;27.52;17.23;;;24.10;99.90;;;;;;5015308;28;20025;-77
2023/08/12 00:24:51;;;;;;;26.77;17.58;;;24.10;99.90;;;;;;5014747;28;20030;-78
2023/08/12 00:27:17;;;;;;;23.48;18.50;;;24.10;99.90;;;;;;5015138;28;20024;-79
2023/08/12 00:29:43;;;;;;;22.63;18.35;;;24.10;99.90;;;;;;5013428;28;20080;-80
2023/08/12 00:32:09;;;;;;;26.83;19.85;;;24.00;99.90;;;;;;5014958;28;20451;-80
2023/08/12 00:34:35;;;;;;;23.45;17.63;;;23.90;99.90;;;;;;5014844;28;20024;-79
2023/08/12 00:37:01;;;;;;;27.15;18.52;;;23.80;99.90;;;;;;5014853;28;20116;-78
2023/08/12 00:39:27;;;;;;;21.15;16.60;;;23.80;99.90;;;;;;5013244;28;20495;-78
2023/08/12 00:41:52;;;;;;;21.70;17.08;;;23.90;99.90;;;;;;5014876;28;20026;-80
2023/08/12 00:44:18;;;;;;;19.17;15.85;;;23.90;99.90;;;;;;5013590;28;20025;-79
2023/08/12 00:46:44;;;;;;;21.25;15.60;;;23.80;99.90;;;;;;5014611;28;20022;-79
2023/08/12 00:49:12;;;;;;;23.13;17.83;;;23.70;99.90;;;;;;5014252;28;20018;-81
2023/08/12 00:51:41;;;;;;;19.00;14.35;;;23.80;99.90;;;;;;5029713;28;20045;-78
2023/08/12 00:54:08;;;;;;;27.38;15.98;;;23.50;99.90;;;;;;5014311;28;20036;-78
2023/08/12 00:56:35;;;;;;;20.73;15.30;;;23.40;99.90;;;;;;5014602;28;20633;-80
2023/08/12 00:59:04;;;;;;;20.13;14.88;;;23.30;99.90;;;;;;5014241;28;20521;-83
2023/08/12 01:01:31;;;;;;;20.08;13.40;;;23.20;99.90;;;;;;5014810;28;20066;-81
2023/08/12 01:03:57;;;;;;;17.27;13.70;;;23.20;99.90;;;;;;5014238;28;20025;-78
2023/08/12 01:06:24;;;;;;;19.35;14.15;;;23.20;99.90;;;;;;5021816;28;20037;-79
2023/08/12 01:08:50;;;;;;;19.35;12.60;;;23.20;99.90;;;;;;5033519;28;20067;-78
2023/08/12 01:11:44;;;;;;;18.40;13.73;;;23.10;99.90;;;;;;5034570;28;20049;-78
2023/08/12 01:14:20;;;;;;;18.73;12.88;;;23.10;99.90;;;;;;5032825;28;20113;-76
2023/08/12 01:16:49;;;;;;;19.90;13.02;;;23.10;99.90;;;;;;5033709;28;20029;-78
2023/08/12 01:19:29;;;;;;;16.55;11.35;;;23.20;99.90;;;;;;5033698;28;20470;-78
2023/08/12 01:21:59;;;;;;;24.30;12.82;;;23.20;99.90;;;;;;5033656;28;20021;-78
2023/08/12 01:24:25;;;;;;;19.48;12.35;;;23.30;99.90;;;;;;5033523;28;20430;-78
2023/08/12 01:26:50;;;;;;;15.07;12.93;;;23.30;99.90;;;;;;5032526;28;20108;-79
2023/08/12 01:29:17;;;;;;;17.00;13.35;;;23.40;99.90;;;;;;5033422;28;20425;-78
2023/08/12 01:31:53;;;;;;;25.17;14.63;;;23.40;99.90;;;;;;5033772;28;20025;-78
2023/08/12 01:34:39;;;;;;;24.35;14.13;;;23.50;99.90;;;;;;5032204;28;20466;-78
2023/08/12 01:37:06;;;;;;;24.73;15.38;;;23.50;99.90;;;;;;5032922;28;20041;-78
2023/08/12 01:39:33;;;;;;;19.88;15.20;;;23.50;99.90;;;;;;5033465;28;20021;-78
2023/08/12 01:42:00;;;;;;;27.38;17.15;;;23.40;99.90;;;;;;5033520;28;20108;-81
2023/08/12 01:44:26;;;;;;;20.35;15.35;;;23.40;99.90;;;;;;5033479;28;20033;-82
2023/08/12 01:46:51;;;;;;;25.08;15.30;;;23.30;99.90;;;;;;5033209;28;20025;-82
2023/08/12 01:49:17;;;;;;;18.73;14.38;;;23.20;99.90;;;;;;5048853;28;20426;-80
2023/08/12 01:51:43;;;;;;;25.25;16.20;;;23.20;99.90;;;;;;5032858;28;20363;-79
2023/08/12 01:54:09;;;;;;;16.83;12.07;;;23.20;99.90;;;;;;5033266;28;20410;-79
2023/08/12 01:56:34;;;;;;;23.50;14.10;;;23.10;99.90;;;;;;5033108;28;20026;-79
2023/08/12 01:59:00;;;;;;;19.73;14.02;;;23.10;99.90;;;;;;5032890;28;20489;-79
2023/08/12 02:01:26;;;;;;;22.00;13.77;;;23.10;99.90;;;;;;5033051;28;20446;-79
2023/08/12 02:03:51;;;;;;;20.40;14.50;;;23.20;99.90;;;;;;5033150;28;20552;-78
2023/08/12 02:06:17;;;;;;;22.83;15.82;;;23.20;99.90;;;;;;5032489;28;20026;-79
2023/08/12 02:08:43;;;;;;;22.48;15.15;;;23.20;99.90;;;;;;5031422;28;20026;-78
2023/08/12 02:11:09;;;;;;;23.52;14.50;;;23.20;99.90;;;;;;5033305;28;20521;-78
2023/08/12 02:13:34;;;;;;;28.95;16.75;;;23.20;99.90;;;;;;5032977;28;20041;-78
2023/08/12 02:16:00;;;;;;;28.58;15.95;;;23.20;99.90;;;;;;5032777;28;20540;-78
2023/08/12 02:18:26;;;;;;;22.48;15.77;;;23.10;99.90;;;;;;5032562;28;20048;-78
2023/08/12 02:20:51;;;;;;;21.33;15.00;;;23.20;99.90;;;;;;5031164;28;20425;-78
2023/08/12 02:23:17;;;;;;;22.67;16.77;;;23.20;99.90;;;;;;5032628;28;20052;-78
2023/08/12 02:25:43;;;;;;;20.35;14.50;;;23.10;99.90;;;;;;5032588;28;20030;-78
2023/08/12 02:28:09;;;;;;;19.92;14.60;;;23.10;99.90;;;;;;5032378;28;20076;-80
2023/08/12 02:30:34;;;;;;;20.33;15.35;;;23.10;99.90;;;;;;5032521;28;20044;-78
2023/08/12 02:33:00;;;;;;;25.10;16.73;;;23.10;99.90;;;;;;5032273;28;20026;-79
2023/08/12 02:35:26;;;;;;;26.55;18.60;;;23.10;99.90;;;;;;5032306;28;20425;-78
2023/08/12 02:37:52;;;;;;;29.35;18.73;;;23.00;99.90;;;;;;5032276;28;20104;-79
2023/08/12 02:40:17;;;;;;;26.05;18.10;;;22.90;99.90;;;;;;5031170;28;20665;-78
2023/08/12 02:42:43;;;;;;;27.38;17.95;;;22.90;99.90;;;;;;5032236;28;20458;-78
2023/08/12 02:45:09;;;;;;;23.42;16.58;;;22.90;99.90;;;;;;5032542;28;20143;-79
2023/08/12 02:47:35;;;;;;;23.98;17.23;;;22.80;99.90;;;;;;5032172;28;20388;-78
2023/08/12 02:50:00;;;;;;;23.50;16.85;;;22.70;99.90;;;;;;5030665;28;20037;-78
2023/08/12 02:52:26;;;;;;;22.85;17.00;;;22.70;99.90;;;;;;5032417;28;20030;-78
2023/08/12 02:54:52;;;;;;;24.05;16.13;;;22.70;99.90;;;;;;5032466;28;20048;-79
2023/08/12 02:57:18;;;;;;;17.70;13.15;;;22.70;99.90;;;;;;5030823;28;20390;-79
2023/08/12 02:59:43;;;;;;;16.52;14.10;;;22.90;99.90;;;;;;5032116;28;20040;-78
2023/08/12 03:02:09;;;;;;;18.42;13.07;;;22.90;99.90;;;;;;5031996;28;20026;-77
2023/08/12 03:04:35;;;;;;;21.77;15.18;;;22.90;99.90;;;;;;5030878;28;20457;-78
2023/08/12 03:07:02;;;;;;;17.05;14.05;;;22.90;99.90;;;;;;5032115;28;20164;-78
2023/08/12 03:09:28;;;;;;;18.85;12.98;;;22.90;99.90;;;;;;5032047;28;20021;-78
2023/08/12 03:11:53;;;;;;;17.23;11.63;;;23.00;99.90;;;;;;5032017;28;20119;-78
2023/08/12 03:14:19;;;;;;;15.38;10.02;;;22.90;99.90;;;;;;5032206;28;20083;-78
2023/08/12 03:16:45;;;;;;;11.80;9.90;;;23.00;99.90;;;;;;5031779;28;20152;-77
2023/08/12 03:19:10;;;;;;;19.52;11.23;;;22.90;99.90;;;;;;5031571;28;20480;-78
2023/08/12 03:21:36;;;;;;;14.38;10.68;;;22.90;99.90;;;;;;5031942;28;20431;-79
2023/08/12 03:24:02;;;;;;;18.25;12.13;;;22.90;99.90;;;;;;5032066;28;20021;-78
2023/08/12 03:26:28;;;;;;;13.77;11.38;;;22.90;99.90;;;;;;5031856;28;20482;-78
2023/08/12 03:28:53;;;;;;;17.98;10.75;;;22.90;99.90;;;;;;5031791;28;20027;-79
2023/08/12 03:31:19;;;;;;;14.82;10.85;;;23.00;99.90;;;;;;5031988;28;20398;-78
2023/08/12 03:33:45;;;;;;;16.45;11.00;;;22.90;99.90;;;;;;5031645;28;20517;-78
2023/08/12 03:36:10;;;;;;;16.52;10.27;;;23.00;99.90;;;;;;5031906;28;20029;-77
2023/08/12 03:38:36;;;;;;;11.88;9.43;;;23.00;99.90;;;;;;5031621;28;20048;-78
2023/08/12 03:41:02;;;;;;;13.73;8.68;;;23.10;99.90;;;;;;5032377;28;20527;-78
2023/08/12 03:43:28;;;;;;;14.70;10.13;;;23.10;99.90;;;;;;5031768;28;20116;-79
2023/08/12 03:45:54;;;;;;;14.50;10.18;;;23.00;99.90;;;;;;5035131;28;20112;-78
2023/08/12 03:48:20;;;;;;;16.00;10.35;;;23.00;99.90;;;;;;5033585;28;20466;-79
2023/08/12 03:50:47;;;;;;;12.20;9.32;;;23.00;99.90;;;;;;5035550;28;20041;-79
2023/08/12 03:53:13;;;;;;;13.70;10.20;;;23.00;99.90;;;;;;5035499;28;20152;-78
2023/08/12 03:55:38;;;;;;;19.73;10.43;;;22.90;99.90;;;;;;5035589;28;20056;-79
2023/08/12 03:58:04;;;;;;;14.30;10.18;;;22.70;99.90;;;;;;5035181;28;20056;-79
2023/08/12 04:00:31;;;;;;;18.90;11.07;;;22.60;99.90;;;;;;5050620;28;20026;-79
2023/08/12 04:02:56;;;;;;;21.27;11.27;;;22.70;99.90;;;;;;5034755;28;20029;-77
2023/08/12 04:05:22;;;;;;;12.00;10.32;;;22.70;99.90;;;;;;5035249;28;20026;-78
2023/08/12 04:07:48;;;;;;;15.68;9.93;;;22.60;99.90;;;;;;5034690;28;20029;-77
2023/08/12 04:10:14;;;;;;;12.43;10.27;;;22.60;99.90;;;;;;5034772;28;20029;-78
2023/08/12 04:12:41;;;;;;;13.20;10.75;;;22.70;99.90;;;;;;5034808;28;20042;-78
2023/08/12 04:15:08;;;;;;;16.35;10.30;;;22.70;99.90;;;;;;5035157;28;20029;-79
2023/08/12 04:17:33;;;;;;;12.88;10.15;;;22.60;99.90;;;;;;5034418;28;20021;-80
2023/08/12 04:19:59;;;;;;;18.00;10.48;;;22.70;99.90;;;;;;5033614;28;20087;-81
2023/08/12 04:22:26;;;;;;;14.48;10.75;;;22.70;99.90;;;;;;5034975;28;20032;-81
2023/08/12 04:24:51;;;;;;;13.32;9.20;;;22.70;99.90;;;;;;5034936;28;20026;-81
2023/08/12 04:27:17;;;;;;;12.32;8.32;;;22.70;99.90;;;;;;5029619;28;20076;-80
2023/08/12 04:29:43;;;;;;;14.77;11.15;;;22.80;99.90;;;;;;5023562;28;20034;-82
2023/08/12 04:32:09;;;;;;;15.68;10.45;;;22.80;99.90;;;;;;5014728;28;20506;-80
2023/08/12 04:34:34;;;;;;;18.40;11.60;;;22.90;99.90;;;;;;5014977;28;20037;-79
2023/08/12 04:37:00;;;;;;;12.75;10.25;;;22.90;99.90;;;;;;5014998;28;20028;-79
2023/08/12 04:39:26;;;;;;;15.80;12.25;;;22.90;99.90;;;;;;5014678;28;20029;-79
2023/08/12 04:41:51;;;;;;;14.13;11.55;;;22.90;99.90;;;;;;5014992;28;20025;-79
2023/08/12 04:44:17;;;;;;;17.20;11.65;;;22.90;99.90;;;;;;5014943;28;20083;-79
2023/08/12 04:46:43;;;;;;;15.30;12.40;;;22.90;99.90;;;;;;5014367;28;20101;-79
2023/08/12 04:49:09;;;;;;;20.63;14.40;;;22.90;99.90;;;;;;5014629;28;20026;-78
2023/08/12 04:51:34;;;;;;;19.63;12.55;;;22.90;99.90;;;;;;5014646;28;20495;-76
2023/08/12 04:54:01;;;;;;;15.75;11.63;;;22.80;99.90;;;;;;5014564;28;20053;-76
2023/08/12 04:56:28;;;;;;;15.68;12.90;;;22.80;99.90;;;;;;5014179;28;20072;-76
2023/08/12 04:58:55;;;;;;;17.95;13.43;;;22.90;99.90;;;;;;5014441;28;20124;-76
2023/08/12 05:01:20;;;;;;;14.35;11.23;;;22.80;99.90;;;;;;5014366;28;20113;-73
2023/08/12 05:03:46;;;;;;;14.60;10.48;;;22.80;99.90;;;;;;5014365;28;20105;-73
2023/08/12 05:06:12;;;;;;;13.80;10.50;;;22.80;99.90;;;;;;5014332;28;20386;-72
2023/08/12 05:08:37;;;;;;;22.35;12.73;;;22.80;99.90;;;;;;5016769;28;20036;-73
2023/08/12 05:11:03;;;;;;;16.42;12.93;;;22.60;99.90;;;;;;5028160;28;20037;-72
2023/08/12 05:13:29;;;;;;;13.15;10.82;;;22.50;99.90;;;;;;5016817;28;20509;-72
2023/08/12 05:15:55;;;;;;;15.98;9.50;;;22.60;99.90;;;;;;5013774;28;20026;-72
2023/08/12 05:18:26;;;;;;;14.52;10.02;;;22.60;99.90;;;;;;5013985;28;20425;-72
2023/08/12 05:20:52;;;;;;;15.18;10.63;;;22.50;99.90;;;;;;5014095;28;20033;-72
2023/08/12 05:23:20;;;;;;;11.02;9.80;;;22.60;99.90;;;;;;5017242;28;20088;-72
2023/08/12 05:25:46;;;;;;;14.60;10.25;;;22.60;99.90;;;;;;5021332;28;20041;-71
2023/08/12 05:28:12;;;;;;;12.68;10.60;;;22.70;99.90;;;;;;5013673;28;20061;-73
2023/08/12 05:30:38;;;;;;;18.85;10.50;;;22.60;99.90;;;;;;5013410;28;20065;-73
2023/08/12 05:33:05;;;;;;;12.07;9.80;;;22.50;99.90;;;;;;5013850;28;20030;-71
2023/08/12 05:35:36;;;;;;;12.30;10.13;;;22.30;99.90;;;;;;5013642;28;20049;-72
2023/08/12 05:38:02;;;;;;;16.08;10.80;;;22.40;99.90;;;;;;5018961;28;20026;-72
2023/08/12 05:40:28;;;;;;;12.98;9.43;;;22.40;99.90;;;;;;5019248;28;20034;-71
2023/08/12 05:42:54;;;;;;;10.32;9.02;;;22.40;99.90;;;;;;5013561;28;20491;-72
2023/08/12 05:45:20;;;;;;;19.70;11.45;;;22.40;99.90;;;;;;5013325;28;20107;-72
2023/08/12 05:47:45;;;;;;;9.88;8.60;;;22.20;99.90;;;;;;5028405;28;20022;-73
2023/08/12 05:50:11;;;;;;;8.77;7.82;;;22.20;99.90;;;;;;5013327;28;20449;-71
2023/08/12 05:52:37;;;;;;;10.35;7.85;;;22.20;99.90;;;;;;5013552;28;20025;-72
2023/08/12 05:55:03;;;;;;;10.23;8.43;;;22.10;99.90;;;;;;5013371;28;20478;-72
2023/08/12 05:57:29;;;;;;;7.43;6.75;;;22.10;99.90;;;;;;5013390;28;20024;-72
2023/08/12 05:59:55;;;;;;;8.00;6.90;;;22.10;99.90;;;;;;5012780;28;20117;-75
2023/08/12 06:02:20;;;;;;;6.88;6.13;;;22.20;99.90;;;;;;5013202;28;20057;-75
2023/08/12 06:04:46;;;;;;;7.30;6.70;;;22.20;99.90;;;;;;5013174;28;20061;-74
2023/08/12 06:07:12;;;;;;;8.25;7.45;;;22.20;99.90;;;;;;5012292;28;20419;-74
2023/08/12 06:09:37;;;;;;;10.75;7.85;;;22.20;99.90;;;;;;5023079;28;20099;-74
2023/08/12 06:12:03;;;;;;;9.63;7.47;;;22.30;99.90;;;;;;5028679;28;20080;-75
2023/08/12 06:14:29;;;;;;;7.28;6.53;;;22.20;99.90;;;;;;5032561;28;20482;-74
2023/08/12 06:16:55;;;;;;;7.32;6.72;;;22.30;99.90;;;;;;5031163;28;20036;-73
2023/08/12 06:19:20;;;;;;;7.65;6.95;;;22.30;99.90;;;;;;5030191;28;20459;-75
2023/08/12 06:21:46;;;;;;;8.77;7.80;;;22.30;99.90;;;;;;5012747;28;20026;-71
2023/08/12 06:24:12;;;;;;;7.85;7.10;;;22.30;99.90;;;;;;5025732;28;20103;-74
2023/08/12 06:26:38;;;;;;;8.55;6.82;;;22.30;99.90;;;;;;5012479;28;20022;-72
2023/08/12 06:29:04;;;;;;;11.18;8.25;;;22.40;99.90;;;;;;5012551;28;20026;-73
2023/08/12 06:31:29;;;;;;;9.35;8.45;;;22.40;99.90;;;;;;5021643;28;20037;-73
2023/08/12 06:33:55;;;;;;;9.73;8.80;;;22.50;99.90;;;;;;5032440;28;20030;-75
2023/08/12 06:36:21;;;;;;;10.73;9.63;;;22.50;99.90;;;;;;5032048;28;20026;-74
2023/08/12 06:38:46;;;;;;;10.60;9.50;;;22.40;99.90;;;;;;5032158;28;20385;-75
2023/08/12 06:41:12;;;;;;;11.95;10.75;;;22.40;99.90;;;;;;5032126;28;20048;-74
2023/08/12 06:43:38;;;;;;;12.02;10.88;;;22.50;99.90;;;;;;5032169;28;20029;-75
2023/08/12 06:46:03;;;;;;;12.13;10.77;;;22.40;99.90;;;;;;5032438;28;20104;-75
2023/08/12 06:48:29;;;;;;;11.85;10.38;;;22.40;99.90;;;;;;5030706;28;20470;-75
2023/08/12 06:50:56;;;;;;;13.05;9.85;;;22.40;99.90;;;;;;5031968;28;20033;-75
2023/08/12 06:53:22;;;;;;;11.75;9.98;;;22.50;99.90;;;;;;5032315;28;20130;-73
2023/08/12 06:55:48;;;;;;;10.68;9.63;;;22.40;99.90;;;;;;5031753;28;20099;-73
2023/08/12 06:58:14;;;;;;;11.25;9.25;;;22.50;99.90;;;;;;5030260;28;20485;-74
2023/08/12 07:00:41;;;;;;;9.73;8.70;;;22.50;99.90;;;;;;5018696;28;20036;-73
2023/08/12 07:03:06;;;;;;;12.95;10.00;;;22.50;99.90;;;;;;5031325;28;20041;-72
2023/08/12 07:05:32;;;;;;;10.75;9.77;;;22.60;99.90;;;;;;5030973;28;20064;-72
2023/08/12 07:07:58;;;;;;;9.20;8.30;;;22.60;99.90;;;;;;5031724;28;20105;-74
2023/08/12 07:10:24;;;;;;;10.10;9.07;;;22.60;99.90;;;;;;5031208;28;20033;-74
2023/08/12 07:12:49;;;;;;;13.73;8.32;;;22.60;99.90;;;;;;5031839;28;20026;-73
2023/08/12 07:15:15;;;;;;;8.10;7.13;;;22.60;99.90;;;;;;5031918;28;20100;-74
2023/08/12 07:17:41;;;;;;;8.20;7.22;;;22.70;99.90;;;;;;5031414;28;20101;-74
2023/08/12 07:20:07;;;;;;;7.05;6.35;;;22.60;99.90;;;;;;5035610;28;20105;-73
2023/08/12 07:22:33;;;;;;;8.20;6.80;;;22.70;99.90;;;;;;5034716;28;20064;-69
2023/08/12 07:25:02;;;;;;;9.00;6.75;;;22.50;99.90;;;;;;5017667;28;20018;-71
2023/08/12 07:27:28;;;;;;;9.02;6.30;;;22.60;99.90;;;;;;5015848;28;20057;-71
2023/08/12 07:29:54;;;;;;;8.00;6.55;;;22.60;99.90;;;;;;5031093;28;20088;-71
2023/08/12 07:32:19;;;;;;;7.18;6.05;;;22.60;99.90;;;;;;5022183;28;20534;-71
2023/08/12 07:34:45;;;;;;;8.95;6.72;;;22.70;99.90;;;;;;5029534;28;20112;-70
2023/08/12 07:37:11;;;;;;;6.00;5.13;;;22.70;99.90;;;;;;5034827;28;20104;-70
2023/08/12 07:39:37;;;;;;;7.90;6.57;;;22.70;99.90;;;;;;5021740;28;20034;-68
2023/08/12 07:42:03;;;;;;;6.15;5.60;;;22.70;99.90;;;;;;5030996;28;20034;-74
2023/08/12 07:44:29;;;;;;;7.18;5.55;;;22.70;99.90;;;;;;5019737;28;20101;-73
2023/08/12 07:46:55;;;;;;;7.55;5.57;;;22.70;99.90;;;;;;5024113;28;20120;-74
2023/08/12 07:49:22;;;;;;;5.40;4.70;;;22.70;99.90;;;;;;5015664;28;20083;-73
2023/08/12 07:51:47;;;;;;;6.57;4.93;;;22.70;99.90;;;;;;5015546;28;20045;-71
2023/08/12 07:54:13;;;;;;;6.05;5.15;;;22.70;99.90;;;;;;5015224;28;20022;-72
2023/08/12 07:56:39;;;;;;;5.63;5.13;;;22.60;99.90;;;;;;5015470;28;20037;-70
2023/08/12 07:59:04;;;;;;;5.32;4.70;;;22.70;99.90;;;;;;5015343;28;20379;-70
2023/08/12 08:01:30;;;;;;;4.72;4.32;;;22.80;99.90;;;;;;5023530;28;20114;-70
2023/08/12 08:03:56;;;;;;;4.85;4.38;;;22.70;99.90;;;;;;5035084;28;20029;-71
2023/08/12 08:06:23;;;;;;;4.70;4.25;;;22.70;99.90;;;;;;5035048;28;20021;-71
2023/08/12 08:08:49;;;;;;;7.18;5.25;;;22.80;99.90;;;;;;5030026;28;20022;-69
2023/08/12 08:11:15;;;;;;;4.53;4.13;;;22.90;99.90;;;;;;5015225;28;20431;-73
2023/08/12 08:13:41;;;;;;;5.50;4.40;;;22.90;99.90;;;;;;5018539;28;20132;-70
2023/08/12 08:16:06;;;;;;;5.00;4.05;;;23.00;99.90;;;;;;5035012;28;20033;-73
2023/08/12 08:18:32;;;;;;;5.13;3.72;;;23.00;99.90;;;;;;5034524;28;20040;-71
2023/08/12 08:20:58;;;;;;;5.07;4.22;;;23.10;99.90;;;;;;5034971;28;20033;-71
2023/08/12 08:23:24;;;;;;;7.30;4.15;;;23.20;99.90;;;;;;5034657;28;20025;-72
2023/08/12 08:25:50;;;;;;;5.70;4.03;;;23.10;99.90;;;;;;5034849;28;20026;-71
2023/08/12 08:28:15;;;;;;;5.93;3.72;;;23.10;99.90;;;;;;5029595;28;20026;-72
2023/08/12 08:30:41;;;;;;;3.65;3.35;;;23.10;99.90;;;;;;5030765;28;20041;-71
2023/08/12 08:33:08;;;;;;;4.85;3.63;;;23.10;99.90;;;;;;5034886;28;20051;-70
2023/08/12 08:35:33;;;;;;;4.55;3.65;;;23.20;99.90;;;;;;5034879;28;20025;-71
2023/08/12 08:37:59;;;;;;;4.28;3.33;;;23.10;99.90;;;;;;5034571;28;20021;-70
2023/08/12 08:40:26;;;;;;;6.30;3.78;;;23.20;99.90;;;;;;5034222;28;20436;-69
2023/08/12 08:42:53;;;;;;;3.78;3.42;;;23.20;99.90;;;;;;5034621;28;20029;-71
2023/08/12 08:45:21;;;;;;;3.65;3.35;;;23.30;99.90;;;;;;5034517;28;20079;-70
2023/08/12 08:47:48;;;;;;;3.95;3.03;;;23.30;99.90;;;;;;5034225;28;20041;-70
2023/08/12 08:50:15;;;;;;;5.93;3.40;;;23.40;99.90;;;;;;5034264;28;20473;-70
2023/08/12 08:52:43;;;;;;;2.55;2.35;;;23.30;99.90;;;;;;5032720;28;20036;-72
2023/08/12 08:55:09;;;;;;;2.60;2.40;;;23.30;99.90;;;;;;5034092;28;20029;-72
2023/08/12 08:57:37;;;;;;;3.85;1.40;;;23.40;99.90;;;;;;5034380;28;20014;-70
2023/08/12 09:00:07;;;;;;;1.48;1.30;;;23.50;99.90;;;;;;5033986;28;20508;-71
2023/08/12 09:02:33;;;;;;;1.58;1.20;;;23.60;99.90;;;;;;5033909;28;20031;-69
2023/08/12 09:05:00;;;;;;;1.48;1.38;;;23.30;99.90;;;;;;5033890;28;20032;-72
2023/08/12 09:07:26;;;;;;;1.35;1.20;;;23.40;99.90;;;;;;5032374;28;20022;-72
2023/08/12 09:09:53;;;;;;;1.35;1.25;;;23.50;99.90;;;;;;5030734;28;20754;-71
2023/08/12 09:12:20;;;;;;;1.10;0.90;;;23.50;99.90;;;;;;5014187;28;20486;-72
2023/08/12 09:14:46;;;;;;;1.30;1.15;;;23.50;99.90;;;;;;5022142;28;20030;-73
2023/08/12 09:17:12;;;;;;;1.98;1.45;;;23.50;99.90;;;;;;5033352;28;20033;-72
2023/08/12 09:19:37;;;;;;;1.85;1.58;;;23.50;99.90;;;;;;5033825;28;20052;-69
2023/08/12 09:22:05;;;;;;;2.28;2.08;;;23.50;99.90;;;;;;5033513;28;20100;-72
2023/08/12 09:24:31;;;;;;;2.25;2.15;;;23.50;99.90;;;;;;5033695;28;20578;-71
2023/08/12 09:26:56;;;;;;;3.30;3.00;;;23.50;99.90;;;;;;5033764;28;20101;-70
2023/08/12 09:29:26;;;;;;;4.22;3.83;;;23.60;99.90;;;;;;5033379;28;20433;-72
2023/08/12 09:31:52;;;;;;;5.07;4.65;;;23.40;99.90;;;;;;5033530;28;20037;-72
2023/08/12 09:34:18;;;;;;;5.43;4.80;;;23.50;99.90;;;;;;5033396;28;20108;-71
2023/08/12 09:36:44;;;;;;;4.63;4.25;;;23.60;99.90;;;;;;5032991;28;20053;-71
2023/08/12 09:39:09;;;;;;;4.78;4.45;;;23.70;99.90;;;;;;5033286;28;20041;-71
2023/08/12 09:41:37;;;;;;;5.47;5.03;;;23.70;99.90;;;;;;5032550;28;20034;-71
2023/08/12 09:44:03;;;;;;;6.78;5.63;;;23.70;99.90;;;;;;5033098;28;20033;-72
2023/08/12 09:46:28;;;;;;;6.43;5.93;;;23.70;99.90;;;;;;5033136;28;20075;-72
2023/08/12 09:48:54;;;;;;;7.03;6.35;;;23.70;99.90;;;;;;5031587;28;20505;-73
2023/08/12 09:51:23;;;;;;;8.52;7.82;;;23.60;99.90;;;;;;5031480;28;20088;-72
2023/08/12 09:53:50;;;;;;;9.18;8.43;;;23.60;99.90;;;;;;5033210;28;20040;-72
2023/08/12 09:56:22;;;;;;;10.27;9.27;;;23.50;99.90;;;;;;5026465;28;20057;-75
2023/08/12 09:58:49;;;;;;;12.80;11.63;;;23.60;99.90;;;;;;5014314;28;20117;-72
2023/08/12 10:01:18;;;;;;;12.05;10.95;;;23.60;99.90;;;;;;5018826;28;20026;-72
2023/08/12 10:03:48;;;;;;;9.55;8.77;;;23.70;99.90;;;;;;5032570;28;20025;-72
2023/08/12 10:06:15;;;;;;;10.38;9.57;;;23.70;99.90;;;;;;5032203;28;20052;-73
2023/08/12 10:08:41;;;;;;;8.90;8.20;;;23.80;99.90;;;;;;5024402;28;20145;-74
2023/08/12 10:11:08;;;;;;;8.77;8.07;;;23.90;99.90;;;;;;5012952;28;20034;-72
2023/08/12 10:13:34;;;;;;;8.75;7.95;;;24.00;99.90;;;;;;5013058;28;20112;-72
2023/08/12 10:16:00;;;;;;;8.48;7.78;;;24.10;99.90;;;;;;5011600;28;20042;-72
2023/08/12 10:18:29;;;;;;;7.00;6.45;;;23.90;99.90;;;;;;5012816;28;20037;-72
2023/08/12 10:20:59;;;;;;;6.28;5.78;;;23.70;99.90;;;;;;5012388;28;20108;-75
2023/08/12 10:23:25;;;;;;;7.68;6.18;;;23.50;99.90;;;;;;5012776;28;20379;-73
2023/08/12 10:25:55;;;;;;;5.28;4.97;;;23.60;99.90;;;;;;5024516;28;20029;-72
2023/08/12 10:28:21;;;;;;;6.25;4.95;;;23.60;99.90;;;;;;5031479;28;20025;-74
2023/08/12 10:30:47;;;;;;;6.07;5.47;;;23.60;99.90;;;;;;5030449;28;20045;-74
2023/08/12 10:33:18;;;;;;;6.38;5.78;;;23.60;99.90;;;;;;5031943;28;20046;-74
2023/08/12 10:35:48;;;;;;;7.30;6.70;;;23.80;99.90;;;;;;5032325;28;20091;-74
2023/08/12 10:38:18;;;;;;;9.35;7.22;;;23.80;99.90;;;;;;5032218;28;20100;-75
2023/08/12 10:40:44;;;;;;;7.20;6.50;;;23.90;99.90;;;;;;5030932;28;20064;-75
2023/08/12 10:43:12;;;;;;;9.13;8.43;;;24.00;99.90;;;;;;5031027;28;20385;-73
2023/08/12 10:45:49;;;;;;;8.70;8.10;;;24.10;99.90;;;;;;5032513;28;20022;-75
2023/08/12 10:48:23;;;;;;;9.75;8.95;;;24.20;99.90;;;;;;5031623;28;20036;-73
2023/08/12 10:50:53;;;;;;;10.80;9.90;;;24.10;99.90;;;;;;5031979;28;20030;-75
2023/08/12 10:53:31;;;;;;;11.70;10.80;;;24.20;99.90;;;;;;5031878;28;20053;-74
2023/08/12 10:55:59;;;;;;;13.45;11.73;;;24.20;99.90;;;;;;5032296;28;20029;-74
2023/08/12 10:58:30;;;;;;;12.82;11.55;;;24.10;99.90;;;;;;5031744;28;20013;-74
2023/08/12 11:00:57;;;;;;;11.88;10.88;;;24.10;99.90;;;;;;5032123;28;20037;-75
2023/08/12 11:03:23;;;;;;;12.05;11.15;;;24.10;99.90;;;;;;5030541;28;20038;-75
2023/08/12 11:05:50;;;;;;;12.95;11.75;;;24.10;99.90;;;;;;5032100;28;20046;-75
2023/08/12 11:08:16;;;;;;;13.20;11.32;;;24.10;99.90;;;;;;5031978;28;20033;-77
2023/08/12 11:10:43;;;;;;;14.95;13.60;;;24.10;99.90;;;;;;5031860;28;20056;-77
2023/08/12 11:13:10;;;;;;;13.32;12.13;;;24.20;99.90;;;;;;5031788;28;20026;-77
2023/08/12 11:15:46;;;;;;;13.20;11.90;;;24.30;99.90;;;;;;5031859;28;20026;-77
2023/08/12 11:18:19;;;;;;;13.35;12.05;;;24.40;99.90;;;;;;5031242;28;20109;-75
2023/08/12 11:20:46;;;;;;;12.02;10.82;;;24.50;99.90;;;;;;5031867;28;20088;-78
2023/08/12 11:23:12;;;;;;;11.93;10.82;;;24.40;99.90;;;;;;5028860;28;20096;-75
2023/08/12 11:25:40;;;;;;;12.35;11.15;;;24.40;99.90;;;;;;5031800;28;20478;-77
2023/08/12 11:28:07;;;;;;;12.10;10.90;;;24.40;99.90;;;;;;5031362;28;20018;-76
2023/08/12 11:30:33;;;;;;;10.73;9.73;;;24.50;99.90;;;;;;5031837;28;20083;-76
2023/08/12 11:33:01;;;;;;;11.07;9.75;;;24.40;99.90;;;;;;5046627;28;20129;-75
2023/08/12 11:35:27;;;;;;;10.95;9.85;;;24.30;99.90;;;;;;5031822;28;20071;-77
2023/08/12 11:37:55;;;;;;;12.38;11.18;;;24.30;99.90;;;;;;5031206;28;20029;-77
2023/08/12 11:40:22;;;;;;;11.48;8.70;;;24.40;99.90;;;;;;5022253;28;20037;-77
2023/08/12 11:42:50;;;;;;;9.95;8.95;;;24.50;99.90;;;;;;5030170;28;20014;-77
2023/08/12 11:45:20;;;;;;;10.95;9.50;;;24.60;99.90;;;;;;5028966;28;20398;-77
2023/08/12 11:47:52;;;;;;;9.48;8.57;;;24.60;99.90;;;;;;5045880;28;20095;-76
2023/08/12 11:50:20;;;;;;;7.43;5.60;;;24.50;99.90;;;;;;5031774;28;20033;-75
2023/08/12 11:52:46;;;;;;;6.80;4.85;;;24.50;99.90;;;;;;5031369;28;20088;-75
2023/08/12 11:55:12;;;;;;;6.40;4.05;;;24.50;99.90;;;;;;5031746;28;20025;-77
2023/08/12 11:57:42;;;;;;;6.28;4.00;;;24.40;99.90;;;;;;5031347;28;20013;-76
2023/08/12 12:00:14;;;;;;;6.20;3.72;;;24.40;99.90;;;;;;5031241;28;20489;-76
2023/08/12 12:02:45;;;;;;;10.60;3.92;;;24.30;99.90;;;;;;5031040;28;20021;-77
2023/08/12 12:05:12;;;;;;;6.32;2.97;;;24.30;99.90;;;;;;5032127;28;20068;-76
2023/08/12 12:07:38;;;;;;;7.07;3.78;;;24.30;99.90;;;;;;5035077;28;20562;-76
2023/08/12 12:10:05;;;;;;;7.90;4.32;;;24.40;99.90;;;;;;5016523;28;20037;-75
2023/08/12 12:12:35;;;;;;;6.45;3.70;;;24.50;99.90;;;;;;5015037;28;20033;-77
2023/08/12 12:15:01;;;;;;;4.93;3.10;;;24.80;99.90;;;;;;5014918;28;20477;-78
2023/08/12 12:17:27;;;;;;;7.88;3.38;;;25.00;99.90;;;;;;5015085;28;20037;-77
2023/08/12 12:19:56;;;;;;;6.32;2.08;;;25.20;99.90;;;;;;5029352;28;20018;-78
2023/08/12 12:22:27;;;;;;;8.02;2.55;;;25.10;99.90;;;;;;5029723;28;20029;-77
2023/08/12 12:24:53;;;;;;;5.80;2.30;;;25.10;99.90;;;;;;5034877;28;20032;-78
2023/08/12 12:27:19;;;;;;;5.25;2.55;;;25.30;99.90;;;;;;5034598;28;20022;-78
2023/08/12 12:29:44;;;;;;;4.90;2.50;;;25.40;99.90;;;;;;5034304;28;20025;-79
2023/08/12 12:32:11;;;;;;;5.85;2.28;;;25.50;99.90;;;;;;5033454;28;20075;-78